sensor_id;sensor_type;location;lat;lon;timestamp;pressure;altitude;pressure_sealevel;temperature;humidity
62201;BME280;48197;42.732;27.192;2023-04-25T10:11:55;98808.88;;;21.69;63.33
62201;BME280;48197;42.732;27.192;2023-04-25T10:14:23;98804.69;;;21.96;63.79
62201;BME280;48197;42.732;27.192;2023-04-25T10:16:50;98800.72;;;22.31;60.39
62201;BME280;48197;42.732;27.192;2023-04-25T10:19:22;98794.41;;;22.81;60.38
62201;BME280;48197;42.732;27.192;2023-04-25T10:21:52;98795.94;;;23.10;58.49
62201;BME280;48197;42.732;27.192;2023-04-25T10:24:20;98801.53;;;22.65;58.90
62201;BME280;48197;42.732;27.192;2023-04-25T10:26:47;98790.59;;;21.96;60.43
62201;BME280;48197;42.732;27.192;2023-04-25T10:29:21;98790.25;;;22.59;59.95
62201;BME280;48197;42.732;27.192;2023-04-25T10:31:49;98785.13;;;23.42;57.09
62201;BME280;48197;42.732;27.192;2023-04-25T10:34:16;98783.66;;;23.02;56.03
62201;BME280;48197;42.732;27.192;2023-04-25T10:36:49;98785.69;;;22.84;56.76
62201;BME280;48197;42.732;27.192;2023-04-25T10:39:21;98784.38;;;23.48;58.00
62201;BME280;48197;42.732;27.192;2023-04-25T10:41:56;98783.13;;;23.15;56.36
62201;BME280;48197;42.732;27.192;2023-04-25T10:44:22;98775.19;;;23.30;56.52
62201;BME280;48197;42.732;27.192;2023-04-25T10:46:48;98773.94;;;23.09;55.70
62201;BME280;48197;42.732;27.192;2023-04-25T10:49:31;98774.09;;;23.50;55.92
62201;BME280;48197;42.732;27.192;2023-04-25T10:52:13;98762.16;;;23.97;52.62
62201;BME280;48197;42.732;27.192;2023-04-25T10:55:03;98758.59;;;24.38;53.95
62201;BME280;48197;42.732;27.192;2023-04-25T11:00:06;98758.00;;;24.86;51.48
62201;BME280;48197;42.732;27.192;2023-04-25T11:02:41;98756.75;;;25.12;51.45
62201;BME280;48197;42.732;27.192;2023-04-25T11:05:09;98751.38;;;25.82;50.89
62201;BME280;48197;42.732;27.192;2023-04-25T11:10:03;98749.00;;;26.43;45.07
62201;BME280;48197;42.732;27.192;2023-04-25T11:12:31;98738.41;;;26.95;44.64
62201;BME280;48197;42.732;27.192;2023-04-25T11:15:01;98736.28;;;27.15;43.04
62201;BME280;48197;42.732;27.192;2023-04-25T11:17:28;98746.59;;;25.53;42.72
62201;BME280;48197;42.732;27.192;2023-04-25T11:19:55;98735.34;;;25.22;43.86
62201;BME280;48197;42.732;27.192;2023-04-25T11:22:22;98725.00;;;24.70;44.93
62201;BME280;48197;42.732;27.192;2023-04-25T11:24:49;98730.06;;;24.05;45.12
62201;BME280;48197;42.732;27.192;2023-04-25T11:27:16;98724.72;;;23.96;45.72
62201;BME280;48197;42.732;27.192;2023-04-25T11:29:43;98714.66;;;25.33;44.13
62201;BME280;48197;42.732;27.192;2023-04-25T11:32:10;98724.22;;;26.12;43.33
62201;BME280;48197;42.732;27.192;2023-04-25T11:34:36;98720.53;;;26.87;41.19
62201;BME280;48197;42.732;27.192;2023-04-25T11:37:03;98711.56;;;26.18;40.74
62201;BME280;48197;42.732;27.192;2023-04-25T11:39:30;98721.59;;;25.08;41.71
62201;BME280;48197;42.732;27.192;2023-04-25T11:41:57;98703.41;;;25.27;42.11
62201;BME280;48197;42.732;27.192;2023-04-25T11:44:24;98707.09;;;24.62;43.57
62201;BME280;48197;42.732;27.192;2023-04-25T11:46:50;98713.53;;;24.21;44.32
62201;BME280;48197;42.732;27.192;2023-04-25T11:49:18;98699.63;;;24.29;45.23
62201;BME280;48197;42.732;27.192;2023-04-25T11:51:46;98695.53;;;25.20;43.06
62201;BME280;48197;42.732;27.192;2023-04-25T11:54:12;98683.19;;;25.18;43.41
62201;BME280;48197;42.732;27.192;2023-04-25T11:56:43;98689.13;;;24.59;44.39
62201;BME280;48197;42.732;27.192;2023-04-25T11:59:09;98676.13;;;24.51;45.01
62201;BME280;48197;42.732;27.192;2023-04-25T12:01:38;98676.84;;;24.15;45.26
62201;BME280;48197;42.732;27.192;2023-04-25T12:04:15;98667.22;;;23.47;49.19
62201;BME280;48197;42.732;27.192;2023-04-25T12:06:43;98670.72;;;22.83;53.40
62201;BME280;48197;42.732;27.192;2023-04-25T12:09:11;98668.94;;;22.35;55.16
62201;BME280;48197;42.732;27.192;2023-04-25T12:23:50;98659.06;;;24.62;53.92
62201;BME280;48197;42.732;27.192;2023-04-25T12:26:17;98660.88;;;25.14;50.72
62201;BME280;48197;42.732;27.192;2023-04-25T12:28:47;98654.59;;;24.06;52.12
62201;BME280;48197;42.732;27.192;2023-04-25T12:31:13;98651.34;;;23.43;54.22
62201;BME280;48197;42.732;27.192;2023-04-25T12:33:41;98654.31;;;22.87;54.96
62201;BME280;48197;42.732;27.192;2023-04-25T12:36:10;98650.78;;;22.47;56.92
62201;BME280;48197;42.732;27.192;2023-04-25T12:38:41;98643.31;;;22.05;58.30
62201;BME280;48197;42.732;27.192;2023-04-25T12:41:08;98650.66;;;21.68;59.40
62201;BME280;48197;42.732;27.192;2023-04-25T12:43:35;98639.44;;;21.79;59.28
62201;BME280;48197;42.732;27.192;2023-04-25T12:46:01;98643.22;;;21.59;58.42
62201;BME280;48197;42.732;27.192;2023-04-25T12:48:27;98640.84;;;21.41;59.57
62201;BME280;48197;42.732;27.192;2023-04-25T12:50:54;98649.19;;;21.24;60.26
62201;BME280;48197;42.732;27.192;2023-04-25T12:53:21;98649.31;;;20.98;61.74
62201;BME280;48197;42.732;27.192;2023-04-25T12:55:48;98646.16;;;20.47;65.93
62201;BME280;48197;42.732;27.192;2023-04-25T12:58:16;98649.78;;;19.95;70.34
62201;BME280;48197;42.732;27.192;2023-04-25T13:00:43;98650.53;;;19.70;73.06
62201;BME280;48197;42.732;27.192;2023-04-25T13:03:10;98650.88;;;19.36;73.84
62201;BME280;48197;42.732;27.192;2023-04-25T13:05:37;98654.38;;;19.11;75.88
62201;BME280;48197;42.732;27.192;2023-04-25T13:08:04;98652.44;;;18.82;77.71
62201;BME280;48197;42.732;27.192;2023-04-25T13:10:31;98644.31;;;18.48;80.68
62201;BME280;48197;42.732;27.192;2023-04-25T13:12:59;98642.88;;;18.23;84.70
62201;BME280;48197;42.732;27.192;2023-04-25T13:15:26;98639.69;;;18.15;86.83
62201;BME280;48197;42.732;27.192;2023-04-25T13:17:53;98642.91;;;17.54;98.07
62201;BME280;48197;42.732;27.192;2023-04-25T13:20:19;98637.81;;;15.77;100.00
62201;BME280;48197;42.732;27.192;2023-04-25T13:22:48;98627.75;;;14.56;100.00
62201;BME280;48197;42.732;27.192;2023-04-25T13:25:15;98616.19;;;14.26;100.00
62201;BME280;48197;42.732;27.192;2023-04-25T13:27:42;98637.00;;;14.22;100.00
62201;BME280;48197;42.732;27.192;2023-04-25T13:30:10;98651.75;;;14.09;100.00
62201;BME280;48197;42.732;27.192;2023-04-25T13:32:37;98672.53;;;13.96;100.00
62201;BME280;48197;42.732;27.192;2023-04-25T13:35:05;98670.63;;;13.93;100.00
62201;BME280;48197;42.732;27.192;2023-04-25T13:37:32;98684.31;;;13.65;100.00
62201;BME280;48197;42.732;27.192;2023-04-25T13:40:02;98682.75;;;13.29;100.00
62201;BME280;48197;42.732;27.192;2023-04-25T13:42:32;98671.84;;;13.00;100.00
62201;BME280;48197;42.732;27.192;2023-04-25T13:44:58;98684.63;;;12.59;100.00
62201;BME280;48197;42.732;27.192;2023-04-25T13:47:26;98686.69;;;11.87;100.00
62201;BME280;48197;42.732;27.192;2023-04-25T13:49:53;98686.69;;;11.58;100.00
62201;BME280;48197;42.732;27.192;2023-04-25T13:52:20;98679.00;;;11.49;100.00
62201;BME280;48197;42.732;27.192;2023-04-25T13:54:46;98681.06;;;11.61;100.00
62201;BME280;48197;42.732;27.192;2023-04-25T13:57:13;98677.09;;;11.92;100.00
62201;BME280;48197;42.732;27.192;2023-04-25T13:59:40;98659.78;;;12.30;100.00
62201;BME280;48197;42.732;27.192;2023-04-25T14:02:08;98659.66;;;12.33;100.00
62201;BME280;48197;42.732;27.192;2023-04-25T14:04:35;98661.56;;;12.49;100.00
62201;BME280;48197;42.732;27.192;2023-04-25T14:07:03;98662.66;;;12.64;100.00
62201;BME280;48197;42.732;27.192;2023-04-25T14:09:30;98665.31;;;12.81;100.00
62201;BME280;48197;42.732;27.192;2023-04-25T14:11:57;98667.59;;;13.08;100.00
62201;BME280;48197;42.732;27.192;2023-04-25T14:14:24;98678.31;;;13.44;100.00
62201;BME280;48197;42.732;27.192;2023-04-25T14:16:51;98682.13;;;13.82;100.00
62201;BME280;48197;42.732;27.192;2023-04-25T14:19:21;98680.63;;;14.12;100.00
62201;BME280;48197;42.732;27.192;2023-04-25T14:21:48;98672.53;;;14.27;100.00
62201;BME280;48197;42.732;27.192;2023-04-25T14:24:14;98672.59;;;14.36;100.00
62201;BME280;48197;42.732;27.192;2023-04-25T14:26:42;98676.78;;;14.41;100.00
62201;BME280;48197;42.732;27.192;2023-04-25T14:29:10;98678.94;;;14.37;100.00
62201;BME280;48197;42.732;27.192;2023-04-25T14:34:40;98684.91;;;14.26;100.00
62201;BME280;48197;42.732;27.192;2023-04-25T14:37:07;98688.84;;;14.16;100.00
62201;BME280;48197;42.732;27.192;2023-04-25T14:39:34;98686.66;;;14.11;100.00
62201;BME280;48197;42.732;27.192;2023-04-25T14:42:00;98677.84;;;14.12;100.00
62201;BME280;48197;42.732;27.192;2023-04-25T14:44:27;98673.25;;;14.18;100.00
62201;BME280;48197;42.732;27.192;2023-04-25T14:46:53;98673.00;;;14.25;100.00
62201;BME280;48197;42.732;27.192;2023-04-25T14:49:20;98674.88;;;14.28;100.00
62201;BME280;48197;42.732;27.192;2023-04-25T14:51:47;98670.28;;;14.35;100.00
62201;BME280;48197;42.732;27.192;2023-04-25T14:54:14;98665.16;;;14.33;100.00
62201;BME280;48197;42.732;27.192;2023-04-25T14:56:40;98666.72;;;14.34;100.00
62201;BME280;48197;42.732;27.192;2023-04-25T14:59:07;98672.84;;;14.29;100.00
62201;BME280;48197;42.732;27.192;2023-04-25T15:01:33;98669.59;;;14.21;100.00
62201;BME280;48197;42.732;27.192;2023-04-25T15:04:01;98672.81;;;14.20;100.00
62201;BME280;48197;42.732;27.192;2023-04-25T15:06:29;98667.25;;;14.20;100.00
62201;BME280;48197;42.732;27.192;2023-04-25T15:08:56;98669.72;;;14.18;100.00
62201;BME280;48197;42.732;27.192;2023-04-25T15:11:23;98674.63;;;14.14;100.00
62201;BME280;48197;42.732;27.192;2023-04-25T15:13:50;98693.00;;;14.11;100.00
62201;BME280;48197;42.732;27.192;2023-04-25T15:16:17;98698.72;;;13.95;100.00
62201;BME280;48197;42.732;27.192;2023-04-25T15:18:44;98695.38;;;13.78;100.00
62201;BME280;48197;42.732;27.192;2023-04-25T15:21:10;98708.09;;;13.66;100.00
62201;BME280;48197;42.732;27.192;2023-04-25T15:23:37;98705.72;;;13.42;100.00
62201;BME280;48197;42.732;27.192;2023-04-25T15:26:04;98703.84;;;13.26;100.00
62201;BME280;48197;42.732;27.192;2023-04-25T15:28:31;98699.06;;;13.27;100.00
62201;BME280;48197;42.732;27.192;2023-04-25T15:31:00;98701.19;;;13.36;100.00
62201;BME280;48197;42.732;27.192;2023-04-25T15:33:27;98690.88;;;13.23;100.00
62201;BME280;48197;42.732;27.192;2023-04-25T15:35:54;98696.75;;;13.25;100.00
62201;BME280;48197;42.732;27.192;2023-04-25T15:38:20;98698.44;;;13.23;100.00
62201;BME280;48197;42.732;27.192;2023-04-25T15:40:47;98697.19;;;13.24;100.00
62201;BME280;48197;42.732;27.192;2023-04-25T15:43:14;98693.66;;;13.23;100.00
62201;BME280;48197;42.732;27.192;2023-04-25T15:45:42;98690.72;;;13.27;100.00
62201;BME280;48197;42.732;27.192;2023-04-25T15:48:09;98683.88;;;13.32;100.00
62201;BME280;48197;42.732;27.192;2023-04-25T15:50:36;98691.97;;;13.26;100.00
62201;BME280;48197;42.732;27.192;2023-04-25T15:53:03;98679.78;;;13.23;100.00
62201;BME280;48197;42.732;27.192;2023-04-25T15:55:30;98681.44;;;13.34;100.00
62201;BME280;48197;42.732;27.192;2023-04-25T15:57:57;98682.53;;;13.36;100.00
62201;BME280;48197;42.732;27.192;2023-04-25T16:00:24;98682.53;;;13.23;100.00
62201;BME280;48197;42.732;27.192;2023-04-25T16:02:51;98679.81;;;13.11;100.00
62201;BME280;48197;42.732;27.192;2023-04-25T16:05:18;98680.03;;;13.03;100.00
62201;BME280;48197;42.732;27.192;2023-04-25T16:07:45;98673.28;;;12.92;100.00
62201;BME280;48197;42.732;27.192;2023-04-25T16:10:12;98673.06;;;12.86;100.00
62201;BME280;48197;42.732;27.192;2023-04-25T16:12:40;98667.75;;;12.79;100.00
62201;BME280;48197;42.732;27.192;2023-04-25T16:15:07;98675.72;;;12.77;100.00
62201;BME280;48197;42.732;27.192;2023-04-25T16:17:34;98676.59;;;12.74;100.00
62201;BME280;48197;42.732;27.192;2023-04-25T16:20:01;98676.75;;;12.70;100.00
62201;BME280;48197;42.732;27.192;2023-04-25T16:22:31;98672.88;;;12.68;100.00
62201;BME280;48197;42.732;27.192;2023-04-25T16:24:58;98669.75;;;12.65;100.00
62201;BME280;48197;42.732;27.192;2023-04-25T16:27:25;98678.19;;;12.62;100.00
62201;BME280;48197;42.732;27.192;2023-04-25T16:29:52;98678.94;;;12.62;100.00
62201;BME280;48197;42.732;27.192;2023-04-25T16:32:18;98684.28;;;12.57;100.00
62201;BME280;48197;42.732;27.192;2023-04-25T16:34:45;98678.06;;;12.53;100.00
62201;BME280;48197;42.732;27.192;2023-04-25T16:37:12;98682.28;;;12.44;100.00
62201;BME280;48197;42.732;27.192;2023-04-25T16:39:38;98676.94;;;12.37;100.00
62201;BME280;48197;42.732;27.192;2023-04-25T16:42:05;98689.34;;;12.33;100.00
62201;BME280;48197;42.732;27.192;2023-04-25T16:44:31;98677.06;;;12.34;100.00
62201;BME280;48197;42.732;27.192;2023-04-25T16:46:58;98668.41;;;12.32;100.00
62201;BME280;48197;42.732;27.192;2023-04-25T16:49:24;98678.72;;;12.31;100.00
62201;BME280;48197;42.732;27.192;2023-04-25T16:51:51;98677.16;;;12.30;100.00
62201;BME280;48197;42.732;27.192;2023-04-25T16:54:18;98669.84;;;12.36;100.00
62201;BME280;48197;42.732;27.192;2023-04-25T16:56:44;98676.31;;;12.46;100.00
62201;BME280;48197;42.732;27.192;2023-04-25T16:59:11;98698.16;;;12.57;100.00
62201;BME280;48197;42.732;27.192;2023-04-25T17:01:38;98706.91;;;12.68;100.00
62201;BME280;48197;42.732;27.192;2023-04-25T17:04:04;98717.75;;;12.75;100.00
62201;BME280;48197;42.732;27.192;2023-04-25T17:06:31;98721.31;;;12.76;100.00
62201;BME280;48197;42.732;27.192;2023-04-25T17:08:58;98762.03;;;12.79;100.00
62201;BME280;48197;42.732;27.192;2023-04-25T17:11:24;98773.53;;;12.77;100.00
62201;BME280;48197;42.732;27.192;2023-04-25T17:13:51;98787.41;;;12.77;100.00
62201;BME280;48197;42.732;27.192;2023-04-25T17:16:18;98781.53;;;12.75;100.00
62201;BME280;48197;42.732;27.192;2023-04-25T17:18:48;98780.44;;;12.73;100.00
62201;BME280;48197;42.732;27.192;2023-04-25T17:21:18;98784.63;;;12.64;100.00
62201;BME280;48197;42.732;27.192;2023-04-25T17:23:45;98789.16;;;12.58;100.00
62201;BME280;48197;42.732;27.192;2023-04-25T17:26:12;98795.16;;;12.57;100.00
62201;BME280;48197;42.732;27.192;2023-04-25T17:28:39;98791.16;;;12.58;100.00
62201;BME280;48197;42.732;27.192;2023-04-25T17:31:07;98798.78;;;12.54;100.00
62201;BME280;48197;42.732;27.192;2023-04-25T17:33:34;98806.34;;;12.53;100.00
62201;BME280;48197;42.732;27.192;2023-04-25T17:36:01;98809.88;;;12.54;100.00
62201;BME280;48197;42.732;27.192;2023-04-25T17:38:29;98809.88;;;12.54;100.00
62201;BME280;48197;42.732;27.192;2023-04-25T17:40:56;98803.47;;;12.57;100.00
62201;BME280;48197;42.732;27.192;2023-04-25T17:43:23;98806.69;;;12.55;100.00
62201;BME280;48197;42.732;27.192;2023-04-25T17:45:51;98808.34;;;12.53;100.00
62201;BME280;48197;42.732;27.192;2023-04-25T17:48:18;98816.31;;;12.51;100.00
62201;BME280;48197;42.732;27.192;2023-04-25T17:50:47;98819.63;;;12.45;100.00
62201;BME280;48197;42.732;27.192;2023-04-25T17:53:15;98832.09;;;12.37;100.00
62201;BME280;48197;42.732;27.192;2023-04-25T17:55:41;98844.97;;;12.31;100.00
62201;BME280;48197;42.732;27.192;2023-04-25T17:58:09;98854.69;;;12.23;100.00
62201;BME280;48197;42.732;27.192;2023-04-25T18:00:38;98863.09;;;12.19;100.00
62201;BME280;48197;42.732;27.192;2023-04-25T18:03:05;98875.47;;;12.15;100.00
62201;BME280;48197;42.732;27.192;2023-04-25T18:05:32;98877.75;;;12.03;100.00
62201;BME280;48197;42.732;27.192;2023-04-25T18:07:59;98882.00;;;11.92;100.00
62201;BME280;48197;42.732;27.192;2023-04-25T18:10:26;98876.59;;;11.84;100.00
62201;BME280;48197;42.732;27.192;2023-04-25T18:12:53;98876.25;;;11.82;100.00
62201;BME280;48197;42.732;27.192;2023-04-25T18:15:21;98876.69;;;11.81;100.00
62201;BME280;48197;42.732;27.192;2023-04-25T18:17:48;98872.38;;;11.80;100.00
62201;BME280;48197;42.732;27.192;2023-04-25T18:20:15;98873.22;;;11.77;100.00
62201;BME280;48197;42.732;27.192;2023-04-25T18:22:43;98866.50;;;11.78;100.00
62201;BME280;48197;42.732;27.192;2023-04-25T18:25:11;98866.16;;;11.76;100.00
62201;BME280;48197;42.732;27.192;2023-04-25T18:27:40;98874.44;;;11.76;100.00
62201;BME280;48197;42.732;27.192;2023-04-25T18:30:08;98883.25;;;11.71;100.00
62201;BME280;48197;42.732;27.192;2023-04-25T18:32:36;98879.78;;;11.67;100.00
62201;BME280;48197;42.732;27.192;2023-04-25T18:35:03;98882.66;;;11.63;100.00
62201;BME280;48197;42.732;27.192;2023-04-25T18:37:30;98873.22;;;11.60;100.00
62201;BME280;48197;42.732;27.192;2023-04-25T18:39:58;98878.84;;;11.57;100.00
62201;BME280;48197;42.732;27.192;2023-04-25T18:42:30;98873.47;;;11.50;100.00
62201;BME280;48197;42.732;27.192;2023-04-25T18:44:58;98868.03;;;11.46;100.00
62201;BME280;48197;42.732;27.192;2023-04-25T18:47:25;98866.81;;;11.47;100.00
62201;BME280;48197;42.732;27.192;2023-04-25T18:49:51;98860.59;;;11.43;100.00
62201;BME280;48197;42.732;27.192;2023-04-25T18:52:18;98848.47;;;11.37;100.00
62201;BME280;48197;42.732;27.192;2023-04-25T18:54:45;98834.03;;;11.29;100.00
62201;BME280;48197;42.732;27.192;2023-04-25T18:57:12;98824.00;;;11.19;100.00
62201;BME280;48197;42.732;27.192;2023-04-25T18:59:43;98813.25;;;11.04;100.00
62201;BME280;48197;42.732;27.192;2023-04-25T19:02:11;98802.38;;;10.97;100.00
62201;BME280;48197;42.732;27.192;2023-04-25T19:04:41;98799.31;;;10.92;100.00
62201;BME280;48197;42.732;27.192;2023-04-25T19:07:08;98803.38;;;10.87;100.00
62201;BME280;48197;42.732;27.192;2023-04-25T19:09:35;98804.31;;;10.80;100.00
62201;BME280;48197;42.732;27.192;2023-04-25T19:12:02;98810.69;;;10.77;100.00
62201;BME280;48197;42.732;27.192;2023-04-25T19:14:30;98806.38;;;10.76;100.00
62201;BME280;48197;42.732;27.192;2023-04-25T19:16:57;98804.47;;;10.73;100.00
62201;BME280;48197;42.732;27.192;2023-04-25T19:19:25;98797.91;;;10.67;100.00
62201;BME280;48197;42.732;27.192;2023-04-25T19:21:53;98790.44;;;10.64;100.00
62201;BME280;48197;42.732;27.192;2023-04-25T19:24:20;98779.91;;;10.59;100.00
62201;BME280;48197;42.732;27.192;2023-04-25T19:26:47;98777.28;;;10.52;100.00
62201;BME280;48197;42.732;27.192;2023-04-25T19:29:15;98780.97;;;10.45;100.00
62201;BME280;48197;42.732;27.192;2023-04-25T19:31:42;98791.25;;;10.45;100.00
62201;BME280;48197;42.732;27.192;2023-04-25T19:34:10;98791.09;;;10.52;100.00
62201;BME280;48197;42.732;27.192;2023-04-25T19:36:39;98800.19;;;10.52;100.00
62201;BME280;48197;42.732;27.192;2023-04-25T19:39:06;98790.25;;;10.55;100.00
62201;BME280;48197;42.732;27.192;2023-04-25T19:41:35;98798.19;;;10.53;100.00
62201;BME280;48197;42.732;27.192;2023-04-25T19:44:05;98793.38;;;10.57;100.00
62201;BME280;48197;42.732;27.192;2023-04-25T19:46:33;98796.63;;;10.52;100.00
62201;BME280;48197;42.732;27.192;2023-04-25T19:49:00;98787.38;;;10.42;100.00
62201;BME280;48197;42.732;27.192;2023-04-25T19:51:27;98787.22;;;10.49;100.00
62201;BME280;48197;42.732;27.192;2023-04-25T19:53:54;98787.13;;;10.53;100.00
62201;BME280;48197;42.732;27.192;2023-04-25T19:56:21;98787.84;;;10.57;100.00
62201;BME280;48197;42.732;27.192;2023-04-25T19:58:49;98791.31;;;10.61;100.00
62201;BME280;48197;42.732;27.192;2023-04-25T20:01:17;98801.44;;;10.68;100.00
62201;BME280;48197;42.732;27.192;2023-04-25T20:03:44;98809.66;;;10.71;100.00
62201;BME280;48197;42.732;27.192;2023-04-25T20:06:13;98806.72;;;10.78;100.00
62201;BME280;48197;42.732;27.192;2023-04-25T20:08:40;98811.56;;;10.74;100.00
62201;BME280;48197;42.732;27.192;2023-04-25T20:11:07;98809.38;;;10.66;100.00
62201;BME280;48197;42.732;27.192;2023-04-25T20:13:34;98801.59;;;10.60;100.00
62201;BME280;48197;42.732;27.192;2023-04-25T20:16:01;98807.19;;;10.57;100.00
62201;BME280;48197;42.732;27.192;2023-04-25T20:18:28;98810.38;;;10.55;100.00
62201;BME280;48197;42.732;27.192;2023-04-25T20:20:55;98807.59;;;10.55;100.00
62201;BME280;48197;42.732;27.192;2023-04-25T20:23:22;98806.47;;;10.53;100.00
62201;BME280;48197;42.732;27.192;2023-04-25T20:25:49;98802.84;;;10.56;100.00
62201;BME280;48197;42.732;27.192;2023-04-25T20:28:17;98806.69;;;10.62;100.00
62201;BME280;48197;42.732;27.192;2023-04-25T20:30:44;98809.38;;;10.66;100.00
62201;BME280;48197;42.732;27.192;2023-04-25T20:33:11;98807.47;;;10.62;100.00
62201;BME280;48197;42.732;27.192;2023-04-25T20:35:39;98813.13;;;10.55;100.00
62201;BME280;48197;42.732;27.192;2023-04-25T20:38:05;98817.88;;;10.55;100.00
62201;BME280;48197;42.732;27.192;2023-04-25T20:40:32;98816.75;;;10.52;100.00
62201;BME280;48197;42.732;27.192;2023-04-25T20:43:00;98817.59;;;10.49;100.00
62201;BME280;48197;42.732;27.192;2023-04-25T20:45:27;98809.75;;;10.48;100.00
62201;BME280;48197;42.732;27.192;2023-04-25T20:47:58;98819.66;;;10.45;100.00
62201;BME280;48197;42.732;27.192;2023-04-25T20:50:25;98808.19;;;10.47;100.00
62201;BME280;48197;42.732;27.192;2023-04-25T20:52:51;98805.06;;;10.45;100.00
62201;BME280;48197;42.732;27.192;2023-04-25T20:55:18;98802.31;;;10.45;100.00
62201;BME280;48197;42.732;27.192;2023-04-25T20:57:45;98800.31;;;10.45;100.00
62201;BME280;48197;42.732;27.192;2023-04-25T21:00:12;98802.25;;;10.48;100.00
62201;BME280;48197;42.732;27.192;2023-04-25T21:02:52;98799.81;;;10.50;100.00
62201;BME280;48197;42.732;27.192;2023-04-25T21:05:20;98800.25;;;10.49;100.00
62201;BME280;48197;42.732;27.192;2023-04-25T21:07:50;98802.66;;;10.47;100.00
62201;BME280;48197;42.732;27.192;2023-04-25T21:10:20;98799.91;;;10.47;100.00
62201;BME280;48197;42.732;27.192;2023-04-25T21:12:49;98791.31;;;10.41;100.00
62201;BME280;48197;42.732;27.192;2023-04-25T21:15:17;98801.75;;;10.33;100.00
62201;BME280;48197;42.732;27.192;2023-04-25T21:17:48;98797.47;;;10.29;100.00
62201;BME280;48197;42.732;27.192;2023-04-25T21:20:15;98795.13;;;10.27;100.00
62201;BME280;48197;42.732;27.192;2023-04-25T21:22:49;98792.00;;;10.25;100.00
62201;BME280;48197;42.732;27.192;2023-04-25T21:25:20;98799.22;;;10.19;100.00
62201;BME280;48197;42.732;27.192;2023-04-25T21:27:50;98796.88;;;10.17;100.00
62201;BME280;48197;42.732;27.192;2023-04-25T21:30:18;98798.88;;;10.17;100.00
62201;BME280;48197;42.732;27.192;2023-04-25T21:32:46;98796.13;;;10.17;100.00
62201;BME280;48197;42.732;27.192;2023-04-25T21:35:14;98794.06;;;10.21;100.00
62201;BME280;48197;42.732;27.192;2023-04-25T21:37:40;98797.94;;;10.23;100.00
62201;BME280;48197;42.732;27.192;2023-04-25T21:40:07;98799.06;;;10.26;100.00
62201;BME280;48197;42.732;27.192;2023-04-25T21:42:35;98799.88;;;10.27;100.00
62201;BME280;48197;42.732;27.192;2023-04-25T21:45:03;98795.13;;;10.27;100.00
62201;BME280;48197;42.732;27.192;2023-04-25T21:47:30;98791.25;;;10.25;100.00
62201;BME280;48197;42.732;27.192;2023-04-25T21:49:57;98797.25;;;10.19;100.00
62201;BME280;48197;42.732;27.192;2023-04-25T21:52:24;98804.41;;;10.17;100.00
62201;BME280;48197;42.732;27.192;2023-04-25T21:54:52;98792.63;;;10.13;100.00
62201;BME280;48197;42.732;27.192;2023-04-25T21:57:19;98801.00;;;10.09;100.00
62201;BME280;48197;42.732;27.192;2023-04-25T21:59:47;98800.72;;;10.04;100.00
62201;BME280;48197;42.732;27.192;2023-04-25T22:02:14;98798.00;;;10.00;100.00
62201;BME280;48197;42.732;27.192;2023-04-25T22:04:41;98797.66;;;9.98;100.00
62201;BME280;48197;42.732;27.192;2023-04-25T22:07:10;98806.69;;;9.98;100.00
62201;BME280;48197;42.732;27.192;2023-04-25T22:09:37;98807.97;;;9.94;100.00
62201;BME280;48197;42.732;27.192;2023-04-25T22:12:04;98806.84;;;9.91;100.00
62201;BME280;48197;42.732;27.192;2023-04-25T22:14:31;98808.84;;;9.91;100.00
62201;BME280;48197;42.732;27.192;2023-04-25T22:16:58;98803.25;;;9.94;100.00
62201;BME280;48197;42.732;27.192;2023-04-25T22:19:25;98796.16;;;9.93;100.00
62201;BME280;48197;42.732;27.192;2023-04-25T22:21:53;98795.81;;;9.91;100.00
62201;BME280;48197;42.732;27.192;2023-04-25T22:24:20;98792.69;;;9.89;100.00
62201;BME280;48197;42.732;27.192;2023-04-25T22:26:47;98785.63;;;9.88;100.00
62201;BME280;48197;42.732;27.192;2023-04-25T22:29:14;98789.16;;;9.89;100.00
62201;BME280;48197;42.732;27.192;2023-04-25T22:31:41;98784.81;;;9.88;100.00
62201;BME280;48197;42.732;27.192;2023-04-25T22:34:08;98784.81;;;9.88;100.00
62201;BME280;48197;42.732;27.192;2023-04-25T22:36:35;98781.28;;;9.87;100.00
62201;BME280;48197;42.732;27.192;2023-04-25T22:39:02;98778.53;;;9.87;100.00
62201;BME280;48197;42.732;27.192;2023-04-25T22:41:28;98782.06;;;9.88;100.00
62201;BME280;48197;42.732;27.192;2023-04-25T22:43:55;98777.34;;;9.88;100.00
62201;BME280;48197;42.732;27.192;2023-04-25T22:46:22;98782.34;;;9.93;100.00
62201;BME280;48197;42.732;27.192;2023-04-25T22:48:48;98773.31;;;9.93;100.00
62201;BME280;48197;42.732;27.192;2023-04-25T22:51:15;98775.75;;;9.87;100.00
62201;BME280;48197;42.732;27.192;2023-04-25T22:53:43;98772.38;;;9.79;100.00
62201;BME280;48197;42.732;27.192;2023-04-25T22:56:10;98773.63;;;9.75;100.00
62201;BME280;48197;42.732;27.192;2023-04-25T22:58:37;98776.09;;;9.69;100.00
62201;BME280;48197;42.732;27.192;2023-04-25T23:01:07;98777.78;;;9.63;100.00
62201;BME280;48197;42.732;27.192;2023-04-25T23:03:34;98785.66;;;9.65;100.00
62201;BME280;48197;42.732;27.192;2023-04-25T23:06:01;98791.22;;;9.61;100.00
62201;BME280;48197;42.732;27.192;2023-04-25T23:08:28;98788.94;;;9.56;100.00
62201;BME280;48197;42.732;27.192;2023-04-25T23:10:55;98787.06;;;9.49;100.00
62201;BME280;48197;42.732;27.192;2023-04-25T23:13:21;98785.16;;;9.46;100.00
62201;BME280;48197;42.732;27.192;2023-04-25T23:15:48;98788.69;;;9.47;100.00